Airfield :
LOGIN :

Register | Disclaimer

   EN    FR    IT 

 










Legend :    VFR   Marginal VFR   IFR   Intensive IFR   Very Intensive IFR
Visi :
Ceiling :
>= 8 km
>= 3000ft
5 to 8 km
1000 to 3000 ft
1500m to 5 km
500 to 1000 ft
800 to 1500m
200 to 500 ft
< 800m
< 200 ft
Symbols :   Thunderstorms  Fog  Heavy snow  Heavy precipitations  Wind > 20 kt
SIGMETs :     Misc.  Thunderstorms  Icing  Turbulence  Mountain Waves  Volcanic Ashes







- Airport Elevation : 326 ft
- IATA code : LCG
- Download approach charts


LECO - A Coruna

CURRENT METAR :
  • 261800Z 08009KT 040V110 CAVOK 14/04 Q1020 NOSIG

EXPIRED METARs :
  • 261730Z 08014KT CAVOK 15/03 Q1020 NOSIG
  • 261700Z 08013KT 050V110 CAVOK 16/05 Q1020 NOSIG
  • 261630Z 09012KT 050V120 CAVOK 16/04 Q1020 NOSIG
  • 261600Z 08015KT 050V110 CAVOK 17/05 Q1020 NOSIG
  • 261530Z 09013KT 050V120 CAVOK 17/05 Q1020 NOSIG
  • 261500Z 08014KT 060V120 CAVOK 18/05 Q1020 NOSIG

TAF TAF LECO
Valid from the 26 at 15:00 until the 27 at 15:00 UTC


261400Z 2615/2715 07008KT CAVOK TX19/2714Z TN08/2707Z
No reported NOTAMs for that airfield.
2 SIGMETs reported for the Madrid FIR (LECM) :
 
Severe turbulence
LECM SIGMET 6 VALID 261600/262000 LEVA
LECM MADRID FIR SEV TURB FCST S OF LINE N3700 W00721 - N3648 W00203 SFC/FL050 STNR NC=
Severe turbulence
LECM SIGMET 5 VALID 261600/262000 LEVA
LECM MADRID FIR SEV TURB FCST WI N3822 W00253 - N3733 W00332 - N3646 W00357 - N3655 W00153 - N3824 W00204 - N3822 W00253 SFC/FL120 STNR NC=



MET'MAP, your aeronautical weather chart ! - Copyright ORBIFLY December 2007 - Disclaimer

ORBIFLY MET'MAP TEAM :

Programming & Development : Alexandra Zaïnal
Concept & Development : Baudouin d'Aumeries
Co-Development & Prog : Marc-Olivier Méhu
Technical & hardware support : Manuel Goepfert

Contact : metmap@orbifly.com




SOURCES & CREDITS :

   NOAA